sensor_id;sensor_type;location;lat;lon;timestamp;pressure;altitude;pressure_sealevel;temperature;humidity
15694;BME280;7947;48.834;9.132;2022-07-22T00:00:37;98551.25;;;20.59;74.81
15694;BME280;7947;48.834;9.132;2022-07-22T00:03:40;98556.41;;;20.52;74.79
15694;BME280;7947;48.834;9.132;2022-07-22T00:06:45;98557.88;;;20.49;75.39
15694;BME280;7947;48.834;9.132;2022-07-22T00:09:48;98553.19;;;20.50;75.34
15694;BME280;7947;48.834;9.132;2022-07-22T00:12:51;98546.63;;;20.51;75.38
15694;BME280;7947;48.834;9.132;2022-07-22T00:15:54;98547.47;;;20.43;75.59
15694;BME280;7947;48.834;9.132;2022-07-22T00:18:57;98545.41;;;20.40;75.35
15694;BME280;7947;48.834;9.132;2022-07-22T00:22:02;98555.25;;;20.32;75.57
15694;BME280;7947;48.834;9.132;2022-07-22T00:25:05;98548.78;;;20.37;75.50
15694;BME280;7947;48.834;9.132;2022-07-22T00:28:15;98551.03;;;20.35;75.42
15694;BME280;7947;48.834;9.132;2022-07-22T00:31:17;98541.44;;;20.29;75.85
15694;BME280;7947;48.834;9.132;2022-07-22T00:34:20;98542.72;;;20.31;75.70
15694;BME280;7947;48.834;9.132;2022-07-22T00:37:24;98544.66;;;20.31;76.05
15694;BME280;7947;48.834;9.132;2022-07-22T00:40:27;98538.72;;;20.29;75.79
15694;BME280;7947;48.834;9.132;2022-07-22T00:43:49;98533.47;;;20.24;76.12
15694;BME280;7947;48.834;9.132;2022-07-22T00:46:51;98532.03;;;20.18;76.43
15694;BME280;7947;48.834;9.132;2022-07-22T00:49:54;98532.03;;;20.18;76.48
15694;BME280;7947;48.834;9.132;2022-07-22T00:52:58;98528.03;;;20.15;76.88
15694;BME280;7947;48.834;9.132;2022-07-22T00:56:01;98525.28;;;20.15;76.79
15694;BME280;7947;48.834;9.132;2022-07-22T00:59:07;98534.13;;;20.12;77.04
15694;BME280;7947;48.834;9.132;2022-07-22T01:02:13;98535.41;;;20.15;76.93
15694;BME280;7947;48.834;9.132;2022-07-22T01:05:18;98533.19;;;20.08;77.23
15694;BME280;7947;48.834;9.132;2022-07-22T01:08:26;98530.78;;;20.07;76.94
15694;BME280;7947;48.834;9.132;2022-07-22T01:11:31;98529.03;;;20.02;77.07
15694;BME280;7947;48.834;9.132;2022-07-22T01:14:36;98526.19;;;19.99;77.11
15694;BME280;7947;48.834;9.132;2022-07-22T01:17:40;98526.81;;;19.96;77.76
15694;BME280;7947;48.834;9.132;2022-07-22T01:20:47;98519.63;;;19.91;77.58
15694;BME280;7947;48.834;9.132;2022-07-22T01:23:52;98518.50;;;19.92;77.63
15694;BME280;7947;48.834;9.132;2022-07-22T01:26:57;98525.72;;;19.88;77.39
15694;BME280;7947;48.834;9.132;2022-07-22T01:30:03;98530.22;;;19.84;77.68
15694;BME280;7947;48.834;9.132;2022-07-22T01:33:09;98525.75;;;19.79;77.90
15694;BME280;7947;48.834;9.132;2022-07-22T01:36:16;98530.88;;;19.72;77.91
15694;BME280;7947;48.834;9.132;2022-07-22T01:39:21;98524.97;;;19.70;77.37
15694;BME280;7947;48.834;9.132;2022-07-22T01:42:26;98513.16;;;19.66;77.89
15694;BME280;7947;48.834;9.132;2022-07-22T01:45:32;98526.44;;;19.68;77.95
15694;BME280;7947;48.834;9.132;2022-07-22T01:48:37;98525.16;;;19.65;78.45
15694;BME280;7947;48.834;9.132;2022-07-22T01:51:46;98530.59;;;19.65;78.41
15694;BME280;7947;48.834;9.132;2022-07-22T01:54:51;98519.72;;;19.65;78.34
15694;BME280;7947;48.834;9.132;2022-07-22T01:57:56;98523.56;;;19.64;78.56
15694;BME280;7947;48.834;9.132;2022-07-22T02:01:01;98522.28;;;19.62;78.58
15694;BME280;7947;48.834;9.132;2022-07-22T02:04:06;98526.44;;;19.59;78.67
15694;BME280;7947;48.834;9.132;2022-07-22T02:07:12;98529.81;;;19.56;78.49
15694;BME280;7947;48.834;9.132;2022-07-22T02:10:20;98524.38;;;19.56;78.64
15694;BME280;7947;48.834;9.132;2022-07-22T02:13:25;98529.97;;;19.51;78.64
15694;BME280;7947;48.834;9.132;2022-07-22T02:16:32;98527.59;;;19.50;79.04
15694;BME280;7947;48.834;9.132;2022-07-22T02:19:37;98525.66;;;19.42;78.93
15694;BME280;7947;48.834;9.132;2022-07-22T02:22:44;98518.66;;;19.41;78.88
15694;BME280;7947;48.834;9.132;2022-07-22T02:25:49;98525.50;;;19.30;78.36
15694;BME280;7947;48.834;9.132;2022-07-22T02:28:54;98521.34;;;19.24;78.78
15694;BME280;7947;48.834;9.132;2022-07-22T02:32:01;98524.06;;;19.24;79.23
15694;BME280;7947;48.834;9.132;2022-07-22T02:35:06;98532.84;;;19.21;79.50
15694;BME280;7947;48.834;9.132;2022-07-22T02:38:12;98517.34;;;19.21;79.86
15694;BME280;7947;48.834;9.132;2022-07-22T02:41:17;98523.59;;;19.22;79.52
15694;BME280;7947;48.834;9.132;2022-07-22T02:44:23;98520.41;;;19.20;79.47
15694;BME280;7947;48.834;9.132;2022-07-22T02:47:28;98528.56;;;19.20;79.50
15694;BME280;7947;48.834;9.132;2022-07-22T02:50:33;98515.25;;;19.18;79.62
15694;BME280;7947;48.834;9.132;2022-07-22T02:53:41;98520.53;;;19.15;79.96
15694;BME280;7947;48.834;9.132;2022-07-22T02:56:46;98517.97;;;19.18;79.72
15694;BME280;7947;48.834;9.132;2022-07-22T02:59:52;98513.00;;;19.20;79.85
15694;BME280;7947;48.834;9.132;2022-07-22T03:02:57;98517.19;;;19.18;79.76
15694;BME280;7947;48.834;9.132;2022-07-22T03:06:01;98518.97;;;19.14;79.74
15694;BME280;7947;48.834;9.132;2022-07-22T03:09:08;98525.81;;;19.11;79.59
15694;BME280;7947;48.834;9.132;2022-07-22T03:12:13;98524.25;;;19.10;79.76
15694;BME280;7947;48.834;9.132;2022-07-22T03:15:20;98523.59;;;19.05;79.79
15694;BME280;7947;48.834;9.132;2022-07-22T03:18:25;98524.22;;;19.02;80.11
15694;BME280;7947;48.834;9.132;2022-07-22T03:21:30;98518.63;;;18.98;80.31
15694;BME280;7947;48.834;9.132;2022-07-22T03:24:37;98522.66;;;19.01;80.05
15694;BME280;7947;48.834;9.132;2022-07-22T03:27:42;98522.47;;;18.97;79.72
15694;BME280;7947;48.834;9.132;2022-07-22T03:30:48;98531.59;;;18.92;80.12
15694;BME280;7947;48.834;9.132;2022-07-22T03:33:53;98534.78;;;18.86;80.68
15694;BME280;7947;48.834;9.132;2022-07-22T03:36:58;98537.66;;;18.89;80.51
15694;BME280;7947;48.834;9.132;2022-07-22T03:40:05;98535.91;;;18.85;80.88
15694;BME280;7947;48.834;9.132;2022-07-22T03:43:11;98537.66;;;18.81;80.88
15694;BME280;7947;48.834;9.132;2022-07-22T03:46:15;98535.56;;;18.78;80.90
15694;BME280;7947;48.834;9.132;2022-07-22T03:49:21;98528.53;;;18.77;81.31
15694;BME280;7947;48.834;9.132;2022-07-22T03:52:26;98528.38;;;18.73;81.43
15694;BME280;7947;48.834;9.132;2022-07-22T03:55:32;98530.75;;;18.66;82.12
15694;BME280;7947;48.834;9.132;2022-07-22T03:58:37;98535.22;;;18.71;82.17
15694;BME280;7947;48.834;9.132;2022-07-22T04:01:42;98532.19;;;18.72;81.77
15694;BME280;7947;48.834;9.132;2022-07-22T04:04:47;98535.72;;;18.73;82.07
15694;BME280;7947;48.834;9.132;2022-07-22T04:07:52;98531.88;;;18.74;82.53
15694;BME280;7947;48.834;9.132;2022-07-22T04:11:00;98538.59;;;18.76;82.26
15694;BME280;7947;48.834;9.132;2022-07-22T04:14:05;98532.34;;;18.76;82.20
15694;BME280;7947;48.834;9.132;2022-07-22T04:17:10;98538.13;;;18.74;82.41
15694;BME280;7947;48.834;9.132;2022-07-22T04:20:17;98537.78;;;18.76;82.16
15694;BME280;7947;48.834;9.132;2022-07-22T04:23:23;98533.47;;;18.75;81.93
15694;BME280;7947;48.834;9.132;2022-07-22T04:26:30;98520.72;;;18.75;82.32
15694;BME280;7947;48.834;9.132;2022-07-22T04:29:36;98531.25;;;18.77;82.59
15694;BME280;7947;48.834;9.132;2022-07-22T04:32:41;98525.50;;;18.78;82.94
15694;BME280;7947;48.834;9.132;2022-07-22T04:35:45;98531.09;;;18.82;83.19
15694;BME280;7947;48.834;9.132;2022-07-22T04:38:51;98529.50;;;18.81;83.05
15694;BME280;7947;48.834;9.132;2022-07-22T04:41:58;98531.91;;;18.82;83.15
15694;BME280;7947;48.834;9.132;2022-07-22T04:45:04;98532.84;;;18.86;83.48
15694;BME280;7947;48.834;9.132;2022-07-22T04:48:08;98523.56;;;18.87;83.70
15694;BME280;7947;48.834;9.132;2022-07-22T04:51:13;98522.63;;;18.92;83.92
15694;BME280;7947;48.834;9.132;2022-07-22T04:54:19;98520.88;;;18.96;83.91
15694;BME280;7947;48.834;9.132;2022-07-22T04:57:27;98516.22;;;19.05;84.47
15694;BME280;7947;48.834;9.132;2022-07-22T05:00:33;98513.66;;;19.09;84.38
15694;BME280;7947;48.834;9.132;2022-07-22T05:03:39;98517.97;;;19.18;84.14
15694;BME280;7947;48.834;9.132;2022-07-22T05:06:45;98511.25;;;19.24;83.79
15694;BME280;7947;48.834;9.132;2022-07-22T05:09:50;98512.09;;;19.33;83.56
15694;BME280;7947;48.834;9.132;2022-07-22T05:12:57;98512.06;;;19.42;83.45
15694;BME280;7947;48.834;9.132;2022-07-22T05:16:03;98513.50;;;19.48;82.21
15694;BME280;7947;48.834;9.132;2022-07-22T05:19:08;98518.13;;;19.56;81.84
15694;BME280;7947;48.834;9.132;2022-07-22T05:22:14;98507.38;;;19.68;81.04
15694;BME280;7947;48.834;9.132;2022-07-22T05:25:19;98510.25;;;19.71;81.24
15694;BME280;7947;48.834;9.132;2022-07-22T05:28:26;98504.00;;;19.79;81.13
15694;BME280;7947;48.834;9.132;2022-07-22T05:31:31;98511.81;;;19.90;80.78
15694;BME280;7947;48.834;9.132;2022-07-22T05:34:36;98509.84;;;19.99;80.46
15694;BME280;7947;48.834;9.132;2022-07-22T05:37:41;98509.66;;;20.04;80.57
15694;BME280;7947;48.834;9.132;2022-07-22T05:40:46;98515.22;;;20.16;80.16
15694;BME280;7947;48.834;9.132;2022-07-22T05:43:52;98519.03;;;20.23;79.64
15694;BME280;7947;48.834;9.132;2022-07-22T05:46:58;98515.34;;;20.28;79.46
15694;BME280;7947;48.834;9.132;2022-07-22T05:50:04;98520.91;;;20.40;79.16
15694;BME280;7947;48.834;9.132;2022-07-22T05:53:09;98507.88;;;20.45;79.58
15694;BME280;7947;48.834;9.132;2022-07-22T05:56:14;98509.91;;;20.57;78.07
15694;BME280;7947;48.834;9.132;2022-07-22T05:59:20;98513.34;;;20.66;77.57
15694;BME280;7947;48.834;9.132;2022-07-22T06:02:25;98518.56;;;20.80;77.52
15694;BME280;7947;48.834;9.132;2022-07-22T06:05:34;98515.44;;;20.90;76.90
15694;BME280;7947;48.834;9.132;2022-07-22T06:08:46;98513.78;;;20.97;76.91
15694;BME280;7947;48.834;9.132;2022-07-22T06:12:01;98514.22;;;21.08;76.41
15694;BME280;7947;48.834;9.132;2022-07-22T06:15:12;98522.91;;;21.22;75.96
15694;BME280;7947;48.834;9.132;2022-07-22T06:18:18;98516.69;;;21.33;75.25
15694;BME280;7947;48.834;9.132;2022-07-22T06:21:24;98517.56;;;21.46;73.94
15694;BME280;7947;48.834;9.132;2022-07-22T06:24:30;98509.88;;;21.60;73.72
15694;BME280;7947;48.834;9.132;2022-07-22T06:27:40;98508.66;;;21.70;72.68
15694;BME280;7947;48.834;9.132;2022-07-22T06:30:53;98508.69;;;21.82;71.88
15694;BME280;7947;48.834;9.132;2022-07-22T06:33:59;98510.97;;;21.92;71.73
15694;BME280;7947;48.834;9.132;2022-07-22T06:37:17;98506.47;;;22.08;72.01
15694;BME280;7947;48.834;9.132;2022-07-22T06:40:46;98512.84;;;22.24;71.59
15694;BME280;7947;48.834;9.132;2022-07-22T06:43:53;98499.06;;;22.44;70.73
15694;BME280;7947;48.834;9.132;2022-07-22T06:47:00;98507.84;;;22.62;69.11
15694;BME280;7947;48.834;9.132;2022-07-22T06:50:08;98512.13;;;22.87;69.01
15694;BME280;7947;48.834;9.132;2022-07-22T06:53:21;98501.00;;;23.08;65.98
15694;BME280;7947;48.834;9.132;2022-07-22T06:56:28;98502.91;;;23.19;68.01
15694;BME280;7947;48.834;9.132;2022-07-22T06:59:34;98508.56;;;23.39;67.14
15694;BME280;7947;48.834;9.132;2022-07-22T07:02:40;98499.06;;;23.64;65.97
15694;BME280;7947;48.834;9.132;2022-07-22T07:05:46;98498.06;;;23.84;64.08
15694;BME280;7947;48.834;9.132;2022-07-22T07:08:51;98497.81;;;24.04;62.94
15694;BME280;7947;48.834;9.132;2022-07-22T07:12:01;98494.38;;;24.23;62.48
15694;BME280;7947;48.834;9.132;2022-07-22T07:15:07;98484.63;;;24.41;61.34
15694;BME280;7947;48.834;9.132;2022-07-22T07:18:27;98480.41;;;24.63;60.55
15694;BME280;7947;48.834;9.132;2022-07-22T07:21:33;98473.84;;;24.83;59.84
15694;BME280;7947;48.834;9.132;2022-07-22T07:24:38;98472.78;;;25.07;59.47
15694;BME280;7947;48.834;9.132;2022-07-22T07:27:43;98477.16;;;25.30;59.04
15694;BME280;7947;48.834;9.132;2022-07-22T07:30:49;98467.13;;;25.57;58.24
15694;BME280;7947;48.834;9.132;2022-07-22T07:33:56;98464.81;;;25.81;58.07
15694;BME280;7947;48.834;9.132;2022-07-22T07:37:01;98461.19;;;26.00;55.70
15694;BME280;7947;48.834;9.132;2022-07-22T07:40:07;98464.22;;;26.14;54.90
15694;BME280;7947;48.834;9.132;2022-07-22T07:43:12;98468.81;;;26.07;53.58
15694;BME280;7947;48.834;9.132;2022-07-22T07:46:17;98452.00;;;26.12;54.71
15694;BME280;7947;48.834;9.132;2022-07-22T07:49:24;98450.03;;;26.12;54.13
15694;BME280;7947;48.834;9.132;2022-07-22T07:52:31;98460.44;;;26.22;54.15
15694;BME280;7947;48.834;9.132;2022-07-22T07:55:41;98456.31;;;26.35;53.68
15694;BME280;7947;48.834;9.132;2022-07-22T07:58:46;98462.88;;;26.53;53.70
15694;BME280;7947;48.834;9.132;2022-07-22T08:02:11;98451.00;;;26.75;53.69
15694;BME280;7947;48.834;9.132;2022-07-22T08:05:19;98451.28;;;26.97;52.95
15694;BME280;7947;48.834;9.132;2022-07-22T08:08:29;98450.16;;;27.01;52.70
15694;BME280;7947;48.834;9.132;2022-07-22T08:11:34;98451.53;;;27.18;52.94
15694;BME280;7947;48.834;9.132;2022-07-22T08:14:39;98448.16;;;27.31;52.11
15694;BME280;7947;48.834;9.132;2022-07-22T08:17:44;98451.44;;;27.40;49.25
15694;BME280;7947;48.834;9.132;2022-07-22T08:20:51;98444.09;;;27.51;49.58
15694;BME280;7947;48.834;9.132;2022-07-22T08:23:56;98444.09;;;27.55;50.30
15694;BME280;7947;48.834;9.132;2022-07-22T08:27:02;98440.63;;;27.58;50.11
15694;BME280;7947;48.834;9.132;2022-07-22T08:30:07;98442.31;;;27.70;50.32
15694;BME280;7947;48.834;9.132;2022-07-22T08:33:12;98433.19;;;27.65;48.97
15694;BME280;7947;48.834;9.132;2022-07-22T08:36:20;98426.19;;;27.75;48.86
15694;BME280;7947;48.834;9.132;2022-07-22T08:39:25;98436.16;;;27.87;49.39
15694;BME280;7947;48.834;9.132;2022-07-22T08:42:31;98424.03;;;27.95;48.85
15694;BME280;7947;48.834;9.132;2022-07-22T08:45:36;98425.31;;;28.04;48.69
15694;BME280;7947;48.834;9.132;2022-07-22T08:48:46;98416.66;;;28.09;47.72
15694;BME280;7947;48.834;9.132;2022-07-22T08:51:53;98413.59;;;28.18;47.65
15694;BME280;7947;48.834;9.132;2022-07-22T08:54:58;98419.94;;;28.25;46.97
15694;BME280;7947;48.834;9.132;2022-07-22T08:58:03;98408.53;;;28.34;46.32
15694;BME280;7947;48.834;9.132;2022-07-22T09:01:09;98411.66;;;28.25;46.71
15694;BME280;7947;48.834;9.132;2022-07-22T09:04:16;98401.50;;;28.40;47.55
15694;BME280;7947;48.834;9.132;2022-07-22T09:07:27;98399.69;;;28.62;47.78
15694;BME280;7947;48.834;9.132;2022-07-22T09:10:34;98404.84;;;28.67;46.64
15694;BME280;7947;48.834;9.132;2022-07-22T09:13:39;98402.94;;;28.81;45.43
15694;BME280;7947;48.834;9.132;2022-07-22T09:16:48;98394.25;;;28.83;45.38
15694;BME280;7947;48.834;9.132;2022-07-22T09:19:54;98399.03;;;28.93;46.17
15694;BME280;7947;48.834;9.132;2022-07-22T09:23:02;98403.09;;;29.13;46.21
15694;BME280;7947;48.834;9.132;2022-07-22T09:26:30;98404.25;;;29.15;46.06
15694;BME280;7947;48.834;9.132;2022-07-22T09:29:36;98401.94;;;29.28;45.58
15694;BME280;7947;48.834;9.132;2022-07-22T09:32:42;98405.91;;;29.41;44.54
15694;BME280;7947;48.834;9.132;2022-07-22T09:35:49;98398.41;;;29.45;44.52
15694;BME280;7947;48.834;9.132;2022-07-22T09:38:56;98392.50;;;29.47;44.12
15694;BME280;7947;48.834;9.132;2022-07-22T09:42:06;98391.31;;;29.51;44.59
15694;BME280;7947;48.834;9.132;2022-07-22T09:45:11;98393.28;;;29.54;43.64
15694;BME280;7947;48.834;9.132;2022-07-22T09:48:20;98389.75;;;29.57;44.36
15694;BME280;7947;48.834;9.132;2022-07-22T09:51:26;98383.81;;;29.66;44.10
15694;BME280;7947;48.834;9.132;2022-07-22T09:54:34;98380.31;;;29.79;44.24
15694;BME280;7947;48.834;9.132;2022-07-22T09:57:40;98380.31;;;29.90;43.39
15694;BME280;7947;48.834;9.132;2022-07-22T10:00:46;98372.41;;;30.06;43.23
15694;BME280;7947;48.834;9.132;2022-07-22T10:03:54;98361.31;;;30.09;41.83
15694;BME280;7947;48.834;9.132;2022-07-22T10:07:01;98366.47;;;30.11;42.76
15694;BME280;7947;48.834;9.132;2022-07-22T10:10:09;98363.66;;;30.25;41.87
15694;BME280;7947;48.834;9.132;2022-07-22T10:13:17;98357.34;;;30.28;41.20
15694;BME280;7947;48.834;9.132;2022-07-22T10:16:23;98347.03;;;30.39;40.21
15694;BME280;7947;48.834;9.132;2022-07-22T10:19:29;98341.91;;;30.45;40.52
15694;BME280;7947;48.834;9.132;2022-07-22T10:22:55;98342.19;;;30.64;41.70
15694;BME280;7947;48.834;9.132;2022-07-22T10:26:06;98334.63;;;30.79;40.91
15694;BME280;7947;48.834;9.132;2022-07-22T10:29:27;98331.53;;;30.63;40.14
15694;BME280;7947;48.834;9.132;2022-07-22T10:32:32;98329.53;;;30.67;41.38
15694;BME280;7947;48.834;9.132;2022-07-22T10:35:49;98325.16;;;30.73;40.33
15694;BME280;7947;48.834;9.132;2022-07-22T10:39:08;98319.59;;;30.76;40.46
15694;BME280;7947;48.834;9.132;2022-07-22T10:42:15;98312.47;;;30.86;40.87
15694;BME280;7947;48.834;9.132;2022-07-22T10:45:23;98308.03;;;31.02;40.99
15694;BME280;7947;48.834;9.132;2022-07-22T10:48:46;98299.63;;;31.13;40.60
15694;BME280;7947;48.834;9.132;2022-07-22T10:52:09;98292.09;;;31.13;39.28
15694;BME280;7947;48.834;9.132;2022-07-22T10:55:20;98304.00;;;31.14;39.91
15694;BME280;7947;48.834;9.132;2022-07-22T10:58:49;98299.16;;;31.25;40.77
15694;BME280;7947;48.834;9.132;2022-07-22T11:01:55;98300.66;;;31.40;39.90
15694;BME280;7947;48.834;9.132;2022-07-22T11:05:01;98297.50;;;31.35;39.47
15694;BME280;7947;48.834;9.132;2022-07-22T11:08:09;98291.44;;;31.54;39.96
15694;BME280;7947;48.834;9.132;2022-07-22T11:11:15;98287.81;;;31.60;39.46
15694;BME280;7947;48.834;9.132;2022-07-22T11:14:28;98282.22;;;31.64;38.92
15694;BME280;7947;48.834;9.132;2022-07-22T11:17:34;98274.97;;;31.77;38.34
15694;BME280;7947;48.834;9.132;2022-07-22T11:20:40;98266.19;;;31.85;38.22
15694;BME280;7947;48.834;9.132;2022-07-22T11:23:48;98276.56;;;31.78;37.89
15694;BME280;7947;48.834;9.132;2022-07-22T11:26:55;98271.91;;;31.68;37.73
15694;BME280;7947;48.834;9.132;2022-07-22T11:30:08;98270.50;;;31.86;38.91
15694;BME280;7947;48.834;9.132;2022-07-22T11:33:14;98262.53;;;31.95;38.67
15694;BME280;7947;48.834;9.132;2022-07-22T11:36:23;98259.03;;;31.88;38.08
15694;BME280;7947;48.834;9.132;2022-07-22T11:39:29;98251.06;;;31.93;38.25
15694;BME280;7947;48.834;9.132;2022-07-22T11:42:35;98244.78;;;31.86;37.77
15694;BME280;7947;48.834;9.132;2022-07-22T11:45:56;98241.78;;;32.07;37.37
15694;BME280;7947;48.834;9.132;2022-07-22T11:49:01;98230.69;;;32.07;36.91
15694;BME280;7947;48.834;9.132;2022-07-22T11:52:08;98231.94;;;32.03;36.59
15694;BME280;7947;48.834;9.132;2022-07-22T11:55:15;98221.47;;;32.17;37.01
15694;BME280;7947;48.834;9.132;2022-07-22T11:58:33;98204.91;;;32.37;37.82
15694;BME280;7947;48.834;9.132;2022-07-22T12:01:41;98206.63;;;32.61;36.70
15694;BME280;7947;48.834;9.132;2022-07-22T12:04:47;98197.44;;;32.64;36.22
15694;BME280;7947;48.834;9.132;2022-07-22T12:08:05;98188.28;;;32.67;35.93
15694;BME280;7947;48.834;9.132;2022-07-22T12:11:12;98193.03;;;32.66;36.77
15694;BME280;7947;48.834;9.132;2022-07-22T12:14:20;98193.66;;;32.77;36.50
15694;BME280;7947;48.834;9.132;2022-07-22T12:17:28;98182.09;;;32.82;35.00
15694;BME280;7947;48.834;9.132;2022-07-22T12:20:43;98183.50;;;32.94;35.36
15694;BME280;7947;48.834;9.132;2022-07-22T12:23:57;98172.91;;;32.85;34.38
15694;BME280;7947;48.834;9.132;2022-07-22T12:27:05;98172.97;;;32.82;34.22
15694;BME280;7947;48.834;9.132;2022-07-22T12:30:18;98167.56;;;32.98;33.78
15694;BME280;7947;48.834;9.132;2022-07-22T12:33:24;98169.03;;;33.06;34.91
15694;BME280;7947;48.834;9.132;2022-07-22T12:36:33;98160.69;;;33.06;34.47
15694;BME280;7947;48.834;9.132;2022-07-22T12:39:38;98171.09;;;33.02;34.94
15694;BME280;7947;48.834;9.132;2022-07-22T12:42:44;98167.66;;;33.18;34.52
15694;BME280;7947;48.834;9.132;2022-07-22T12:45:50;98168.00;;;33.20;34.54
15694;BME280;7947;48.834;9.132;2022-07-22T12:48:57;98160.91;;;33.38;33.96
15694;BME280;7947;48.834;9.132;2022-07-22T12:52:11;98149.59;;;33.49;34.87
15694;BME280;7947;48.834;9.132;2022-07-22T12:55:16;98154.69;;;33.54;34.07
15694;BME280;7947;48.834;9.132;2022-07-22T12:58:23;98151.34;;;33.62;34.19
15694;BME280;7947;48.834;9.132;2022-07-22T13:01:29;98146.44;;;33.70;34.43
15694;BME280;7947;48.834;9.132;2022-07-22T13:04:36;98144.03;;;33.72;33.89
15694;BME280;7947;48.834;9.132;2022-07-22T13:07:41;98140.66;;;33.81;33.89
15694;BME280;7947;48.834;9.132;2022-07-22T13:10:46;98131.22;;;33.94;33.53
15694;BME280;7947;48.834;9.132;2022-07-22T13:13:52;98138.09;;;34.09;33.64
15694;BME280;7947;48.834;9.132;2022-07-22T13:16:59;98123.91;;;34.04;33.44
15694;BME280;7947;48.834;9.132;2022-07-22T13:20:08;98125.31;;;34.12;32.74
15694;BME280;7947;48.834;9.132;2022-07-22T13:23:13;98127.28;;;33.92;32.99
15694;BME280;7947;48.834;9.132;2022-07-22T13:26:18;98125.97;;;34.00;33.04
15694;BME280;7947;48.834;9.132;2022-07-22T13:29:24;98124.53;;;34.11;32.40
15694;BME280;7947;48.834;9.132;2022-07-22T13:32:29;98132.38;;;34.16;33.10
15694;BME280;7947;48.834;9.132;2022-07-22T13:35:52;98117.13;;;34.05;32.29
15694;BME280;7947;48.834;9.132;2022-07-22T13:38:57;98121.13;;;34.04;32.30
15694;BME280;7947;48.834;9.132;2022-07-22T13:42:02;98112.31;;;34.05;34.13
15694;BME280;7947;48.834;9.132;2022-07-22T13:45:08;98105.31;;;34.17;31.45
15694;BME280;7947;48.834;9.132;2022-07-22T13:48:14;98112.69;;;34.07;31.89
15694;BME280;7947;48.834;9.132;2022-07-22T13:51:22;98106.88;;;34.18;30.79
15694;BME280;7947;48.834;9.132;2022-07-22T13:54:27;98104.91;;;34.18;30.96
15694;BME280;7947;48.834;9.132;2022-07-22T13:57:33;98096.03;;;34.23;31.33
15694;BME280;7947;48.834;9.132;2022-07-22T14:00:40;98095.13;;;34.10;29.90
15694;BME280;7947;48.834;9.132;2022-07-22T14:03:45;98099.81;;;34.13;31.02
15694;BME280;7947;48.834;9.132;2022-07-22T14:06:52;98093.81;;;34.15;32.02
15694;BME280;7947;48.834;9.132;2022-07-22T14:09:57;98089.34;;;34.37;32.40
15694;BME280;7947;48.834;9.132;2022-07-22T14:13:03;98094.38;;;34.42;31.35
15694;BME280;7947;48.834;9.132;2022-07-22T14:16:09;98081.88;;;34.50;32.46
15694;BME280;7947;48.834;9.132;2022-07-22T14:19:51;98075.97;;;34.64;31.32
15694;BME280;7947;48.834;9.132;2022-07-22T14:23:04;98062.31;;;34.70;31.07
15694;BME280;7947;48.834;9.132;2022-07-22T14:26:09;98074.31;;;34.83;31.32
15694;BME280;7947;48.834;9.132;2022-07-22T14:29:14;98071.97;;;34.65;29.81
15694;BME280;7947;48.834;9.132;2022-07-22T14:32:20;98079.47;;;34.68;30.41
15694;BME280;7947;48.834;9.132;2022-07-22T14:35:24;98066.38;;;34.81;31.15
15694;BME280;7947;48.834;9.132;2022-07-22T14:38:29;98070.13;;;34.91;30.57
15694;BME280;7947;48.834;9.132;2022-07-22T14:41:32;98068.31;;;35.00;30.68
15694;BME280;7947;48.834;9.132;2022-07-22T14:44:34;98065.41;;;35.04;31.35
15694;BME280;7947;48.834;9.132;2022-07-22T14:47:37;98065.06;;;35.02;31.03
15694;BME280;7947;48.834;9.132;2022-07-22T14:50:40;98056.53;;;34.93;29.90
15694;BME280;7947;48.834;9.132;2022-07-22T14:53:45;98051.84;;;34.74;29.40
15694;BME280;7947;48.834;9.132;2022-07-22T14:56:48;98052.03;;;34.67;30.40
15694;BME280;7947;48.834;9.132;2022-07-22T14:59:51;98049.16;;;34.70;30.45
15694;BME280;7947;48.834;9.132;2022-07-22T15:02:54;98047.94;;;34.71;30.16
15694;BME280;7947;48.834;9.132;2022-07-22T15:05:57;98047.41;;;34.76;31.11
15694;BME280;7947;48.834;9.132;2022-07-22T15:09:01;98040.84;;;34.83;31.48
15694;BME280;7947;48.834;9.132;2022-07-22T15:12:07;98040.78;;;35.02;30.46
15694;BME280;7947;48.834;9.132;2022-07-22T15:15:30;98034.22;;;35.09;30.77
15694;BME280;7947;48.834;9.132;2022-07-22T15:18:33;98029.00;;;34.95;30.94
15694;BME280;7947;48.834;9.132;2022-07-22T15:21:35;98027.81;;;34.96;30.95
15694;BME280;7947;48.834;9.132;2022-07-22T15:24:39;98025.88;;;34.93;30.58
15694;BME280;7947;48.834;9.132;2022-07-22T15:27:42;98024.44;;;34.72;30.62
15694;BME280;7947;48.834;9.132;2022-07-22T15:30:45;98028.09;;;34.53;28.81
15694;BME280;7947;48.834;9.132;2022-07-22T15:33:48;98032.56;;;34.15;30.69
15694;BME280;7947;48.834;9.132;2022-07-22T15:36:51;98033.69;;;34.17;31.12
15694;BME280;7947;48.834;9.132;2022-07-22T15:39:56;98032.22;;;34.29;30.43
15694;BME280;7947;48.834;9.132;2022-07-22T15:42:59;98035.63;;;34.20;30.11
15694;BME280;7947;48.834;9.132;2022-07-22T15:46:02;98030.03;;;34.04;30.01
15694;BME280;7947;48.834;9.132;2022-07-22T15:49:05;98027.78;;;33.80;29.35
15694;BME280;7947;48.834;9.132;2022-07-22T15:52:08;98029.97;;;33.52;30.71
15694;BME280;7947;48.834;9.132;2022-07-22T15:55:12;98018.22;;;33.41;30.63
15694;BME280;7947;48.834;9.132;2022-07-22T15:58:15;98017.03;;;33.42;31.95
15694;BME280;7947;48.834;9.132;2022-07-22T16:02:04;98015.78;;;33.47;30.94
15694;BME280;7947;48.834;9.132;2022-07-22T16:05:07;98013.38;;;33.45;31.59
15694;BME280;7947;48.834;9.132;2022-07-22T16:08:10;98010.75;;;33.38;31.37
15694;BME280;7947;48.834;9.132;2022-07-22T16:11:16;98005.63;;;33.37;31.53
15694;BME280;7947;48.834;9.132;2022-07-22T16:14:19;98000.53;;;33.32;31.89
15694;BME280;7947;48.834;9.132;2022-07-22T16:17:21;98005.09;;;33.22;31.77
15694;BME280;7947;48.834;9.132;2022-07-22T16:20:24;98000.88;;;33.14;32.78
15694;BME280;7947;48.834;9.132;2022-07-22T16:23:27;98000.47;;;33.16;32.69
15694;BME280;7947;48.834;9.132;2022-07-22T16:26:32;98000.16;;;33.10;32.42
15694;BME280;7947;48.834;9.132;2022-07-22T16:29:35;97986.63;;;33.12;32.42
15694;BME280;7947;48.834;9.132;2022-07-22T16:32:38;97996.47;;;33.17;32.70
15694;BME280;7947;48.834;9.132;2022-07-22T16:35:48;97986.22;;;33.14;32.53
15694;BME280;7947;48.834;9.132;2022-07-22T16:38:51;98000.06;;;33.17;31.71
15694;BME280;7947;48.834;9.132;2022-07-22T16:41:55;97988.72;;;32.85;31.94